Kuala Lumpur International Airport

WMKK | KUL

Kuala Lumpur , Malaysia

Monday, January 27th, 2020 | 09:06

Weather

WMKK 270030Z VRB02KT 9000 FEW000 SCT030 27/25 Q1010 NOSIG

Charts

1 Available

Gates

271 Available

Runways

3 Available

Events

No events for this airport


New event